sensor_id;sensor_type;location;lat;lon;timestamp;P1;durP1;ratioP1;P2;durP2;ratioP2
49340;SDS011;35209;51.050;13.678;2023-06-04T00:00:35;3.13;;;2.08;;
49340;SDS011;35209;51.050;13.678;2023-06-04T00:05:36;3.28;;;1.90;;
49340;SDS011;35209;51.050;13.678;2023-06-04T00:10:38;2.83;;;1.77;;
49340;SDS011;35209;51.050;13.678;2023-06-04T00:15:41;2.78;;;1.90;;
49340;SDS011;35209;51.050;13.678;2023-06-04T00:20:43;4.63;;;1.67;;
49340;SDS011;35209;51.050;13.678;2023-06-04T00:25:44;2.90;;;1.50;;
49340;SDS011;35209;51.050;13.678;2023-06-04T00:30:46;4.13;;;1.85;;
49340;SDS011;35209;51.050;13.678;2023-06-04T00:35:48;2.92;;;1.80;;
49340;SDS011;35209;51.050;13.678;2023-06-04T00:40:50;3.25;;;1.80;;
49340;SDS011;35209;51.050;13.678;2023-06-04T00:45:52;2.67;;;1.63;;
49340;SDS011;35209;51.050;13.678;2023-06-04T00:50:54;5.50;;;2.10;;
49340;SDS011;35209;51.050;13.678;2023-06-04T00:55:56;3.45;;;1.50;;
49340;SDS011;35209;51.050;13.678;2023-06-04T01:00:58;2.08;;;1.70;;
49340;SDS011;35209;51.050;13.678;2023-06-04T01:06:12;3.42;;;2.10;;
49340;SDS011;35209;51.050;13.678;2023-06-04T01:16:35;2.30;;;1.58;;
49340;SDS011;35209;51.050;13.678;2023-06-04T01:21:42;3.47;;;1.65;;
49340;SDS011;35209;51.050;13.678;2023-06-04T01:26:46;2.22;;;1.65;;
49340;SDS011;35209;51.050;13.678;2023-06-04T01:31:49;3.47;;;2.20;;
49340;SDS011;35209;51.050;13.678;2023-06-04T01:36:56;2.28;;;1.58;;
49340;SDS011;35209;51.050;13.678;2023-06-04T01:41:58;3.08;;;1.83;;
49340;SDS011;35209;51.050;13.678;2023-06-04T01:46:59;2.85;;;2.28;;
49340;SDS011;35209;51.050;13.678;2023-06-04T01:52:01;1.73;;;1.55;;
49340;SDS011;35209;51.050;13.678;2023-06-04T01:57:03;2.10;;;1.60;;
49340;SDS011;35209;51.050;13.678;2023-06-04T02:02:06;2.35;;;1.77;;
49340;SDS011;35209;51.050;13.678;2023-06-04T02:07:08;1.88;;;1.65;;
49340;SDS011;35209;51.050;13.678;2023-06-04T02:12:11;3.00;;;1.90;;
49340;SDS011;35209;51.050;13.678;2023-06-04T02:17:14;2.25;;;1.60;;
49340;SDS011;35209;51.050;13.678;2023-06-04T02:22:18;2.53;;;1.60;;
49340;SDS011;35209;51.050;13.678;2023-06-04T02:27:20;1.83;;;1.65;;
49340;SDS011;35209;51.050;13.678;2023-06-04T02:32:22;2.70;;;1.40;;
49340;SDS011;35209;51.050;13.678;2023-06-04T02:37:24;2.28;;;1.50;;
49340;SDS011;35209;51.050;13.678;2023-06-04T02:42:26;4.30;;;2.03;;
49340;SDS011;35209;51.050;13.678;2023-06-04T02:47:28;2.67;;;1.70;;
49340;SDS011;35209;51.050;13.678;2023-06-04T02:52:30;3.35;;;2.03;;
49340;SDS011;35209;51.050;13.678;2023-06-04T02:57:33;3.17;;;1.65;;
49340;SDS011;35209;51.050;13.678;2023-06-04T03:02:35;3.05;;;1.48;;
49340;SDS011;35209;51.050;13.678;2023-06-04T03:07:37;2.35;;;1.60;;
49340;SDS011;35209;51.050;13.678;2023-06-04T03:12:39;3.45;;;1.70;;
49340;SDS011;35209;51.050;13.678;2023-06-04T03:17:40;2.72;;;1.50;;
49340;SDS011;35209;51.050;13.678;2023-06-04T03:22:43;3.45;;;1.85;;
49340;SDS011;35209;51.050;13.678;2023-06-04T03:27:45;2.25;;;1.50;;
49340;SDS011;35209;51.050;13.678;2023-06-04T03:32:46;3.33;;;1.70;;
49340;SDS011;35209;51.050;13.678;2023-06-04T03:37:49;3.65;;;1.70;;
49340;SDS011;35209;51.050;13.678;2023-06-04T03:42:51;2.90;;;1.60;;
49340;SDS011;35209;51.050;13.678;2023-06-04T03:47:55;2.40;;;1.50;;
49340;SDS011;35209;51.050;13.678;2023-06-04T03:52:57;2.75;;;1.50;;
49340;SDS011;35209;51.050;13.678;2023-06-04T03:57:59;5.32;;;1.63;;
49340;SDS011;35209;51.050;13.678;2023-06-04T04:03:01;2.35;;;1.30;;
49340;SDS011;35209;51.050;13.678;2023-06-04T04:08:04;2.20;;;1.65;;
49340;SDS011;35209;51.050;13.678;2023-06-04T04:13:08;2.70;;;1.48;;
49340;SDS011;35209;51.050;13.678;2023-06-04T04:18:12;2.17;;;1.50;;
49340;SDS011;35209;51.050;13.678;2023-06-04T04:28:27;2.47;;;1.58;;
49340;SDS011;35209;51.050;13.678;2023-06-04T04:33:30;3.78;;;1.42;;
49340;SDS011;35209;51.050;13.678;2023-06-04T04:38:43;2.33;;;1.40;;
49340;SDS011;35209;51.050;13.678;2023-06-04T04:43:46;2.65;;;1.63;;
49340;SDS011;35209;51.050;13.678;2023-06-04T04:48:54;3.88;;;1.85;;
49340;SDS011;35209;51.050;13.678;2023-06-04T04:53:55;3.83;;;2.55;;
49340;SDS011;35209;51.050;13.678;2023-06-04T04:59:00;3.22;;;1.88;;
49340;SDS011;35209;51.050;13.678;2023-06-04T05:04:02;3.03;;;1.73;;
49340;SDS011;35209;51.050;13.678;2023-06-04T05:09:07;2.33;;;1.55;;
49340;SDS011;35209;51.050;13.678;2023-06-04T05:14:11;1.90;;;1.70;;
49340;SDS011;35209;51.050;13.678;2023-06-04T05:19:15;2.88;;;1.55;;
49340;SDS011;35209;51.050;13.678;2023-06-04T05:24:18;2.15;;;1.90;;
49340;SDS011;35209;51.050;13.678;2023-06-04T05:29:22;2.38;;;1.88;;
49340;SDS011;35209;51.050;13.678;2023-06-04T05:34:26;1.92;;;1.50;;
49340;SDS011;35209;51.050;13.678;2023-06-04T05:39:28;2.03;;;1.60;;
49340;SDS011;35209;51.050;13.678;2023-06-04T05:44:46;2.33;;;1.60;;
49340;SDS011;35209;51.050;13.678;2023-06-04T05:49:51;2.25;;;1.70;;
49340;SDS011;35209;51.050;13.678;2023-06-04T05:54:52;2.40;;;1.38;;
49340;SDS011;35209;51.050;13.678;2023-06-04T05:59:55;3.17;;;1.48;;
49340;SDS011;35209;51.050;13.678;2023-06-04T06:04:57;3.00;;;1.60;;
49340;SDS011;35209;51.050;13.678;2023-06-04T06:09:59;2.03;;;1.60;;
49340;SDS011;35209;51.050;13.678;2023-06-04T06:15:01;1.65;;;1.35;;
49340;SDS011;35209;51.050;13.678;2023-06-04T06:20:03;2.67;;;1.75;;
49340;SDS011;35209;51.050;13.678;2023-06-04T06:25:10;2.13;;;1.60;;
49340;SDS011;35209;51.050;13.678;2023-06-04T06:30:19;2.03;;;1.38;;
49340;SDS011;35209;51.050;13.678;2023-06-04T06:35:21;2.45;;;1.60;;
49340;SDS011;35209;51.050;13.678;2023-06-04T06:40:22;2.13;;;1.63;;
49340;SDS011;35209;51.050;13.678;2023-06-04T06:45:24;3.45;;;1.88;;
49340;SDS011;35209;51.050;13.678;2023-06-04T06:50:26;2.08;;;1.70;;
49340;SDS011;35209;51.050;13.678;2023-06-04T06:55:28;2.55;;;1.40;;
49340;SDS011;35209;51.050;13.678;2023-06-04T07:00:29;1.85;;;1.40;;
49340;SDS011;35209;51.050;13.678;2023-06-04T07:05:31;2.95;;;1.20;;
49340;SDS011;35209;51.050;13.678;2023-06-04T07:10:33;1.38;;;1.10;;
49340;SDS011;35209;51.050;13.678;2023-06-04T07:15:35;2.13;;;1.10;;
49340;SDS011;35209;51.050;13.678;2023-06-04T07:20:36;1.77;;;1.13;;
49340;SDS011;35209;51.050;13.678;2023-06-04T07:25:38;1.25;;;0.90;;
49340;SDS011;35209;51.050;13.678;2023-06-04T07:30:40;2.70;;;0.95;;
49340;SDS011;35209;51.050;13.678;2023-06-04T07:35:42;1.85;;;0.80;;
49340;SDS011;35209;51.050;13.678;2023-06-04T07:40:45;1.95;;;0.88;;
49340;SDS011;35209;51.050;13.678;2023-06-04T07:45:47;2.53;;;0.80;;
49340;SDS011;35209;51.050;13.678;2023-06-04T07:50:48;0.80;;;0.80;;
49340;SDS011;35209;51.050;13.678;2023-06-04T07:55:50;1.45;;;1.00;;
49340;SDS011;35209;51.050;13.678;2023-06-04T08:00:53;2.25;;;1.00;;
49340;SDS011;35209;51.050;13.678;2023-06-04T08:05:54;1.50;;;1.00;;
49340;SDS011;35209;51.050;13.678;2023-06-04T08:10:56;1.50;;;0.98;;
49340;SDS011;35209;51.050;13.678;2023-06-04T08:15:58;2.65;;;0.85;;
49340;SDS011;35209;51.050;13.678;2023-06-04T08:21:00;1.10;;;0.80;;
49340;SDS011;35209;51.050;13.678;2023-06-04T08:26:02;1.60;;;1.00;;
49340;SDS011;35209;51.050;13.678;2023-06-04T08:31:06;1.90;;;0.88;;
49340;SDS011;35209;51.050;13.678;2023-06-04T08:36:08;4.25;;;0.90;;
49340;SDS011;35209;51.050;13.678;2023-06-04T08:41:29;1.83;;;1.00;;
49340;SDS011;35209;51.050;13.678;2023-06-04T08:46:39;0.90;;;0.77;;
49340;SDS011;35209;51.050;13.678;2023-06-04T08:51:42;1.33;;;0.80;;
49340;SDS011;35209;51.050;13.678;2023-06-04T08:56:43;1.13;;;0.80;;
49340;SDS011;35209;51.050;13.678;2023-06-04T09:01:46;0.95;;;0.70;;
49340;SDS011;35209;51.050;13.678;2023-06-04T09:06:49;1.27;;;0.82;;
49340;SDS011;35209;51.050;13.678;2023-06-04T09:11:52;6.72;;;0.85;;
49340;SDS011;35209;51.050;13.678;2023-06-04T09:16:56;2.85;;;0.88;;
49340;SDS011;35209;51.050;13.678;2023-06-04T09:22:00;1.77;;;0.80;;
49340;SDS011;35209;51.050;13.678;2023-06-04T09:27:10;2.47;;;0.70;;
49340;SDS011;35209;51.050;13.678;2023-06-04T09:32:23;0.75;;;0.70;;
49340;SDS011;35209;51.050;13.678;2023-06-04T09:37:25;0.73;;;0.73;;
49340;SDS011;35209;51.050;13.678;2023-06-04T09:42:28;0.68;;;0.60;;
49340;SDS011;35209;51.050;13.678;2023-06-04T09:47:38;1.83;;;0.70;;
49340;SDS011;35209;51.050;13.678;2023-06-04T09:52:43;1.40;;;0.65;;
49340;SDS011;35209;51.050;13.678;2023-06-04T09:57:47;2.40;;;0.63;;
49340;SDS011;35209;51.050;13.678;2023-06-04T10:02:55;1.67;;;0.70;;
49340;SDS011;35209;51.050;13.678;2023-06-04T10:07:59;0.60;;;0.60;;
49340;SDS011;35209;51.050;13.678;2023-06-04T10:13:09;2.40;;;0.77;;
49340;SDS011;35209;51.050;13.678;2023-06-04T10:18:18;1.85;;;0.63;;
49340;SDS011;35209;51.050;13.678;2023-06-04T10:23:21;1.50;;;0.82;;
49340;SDS011;35209;51.050;13.678;2023-06-04T10:28:23;2.55;;;0.60;;
49340;SDS011;35209;51.050;13.678;2023-06-04T10:33:25;2.22;;;0.70;;
49340;SDS011;35209;51.050;13.678;2023-06-04T10:38:27;1.80;;;0.80;;
49340;SDS011;35209;51.050;13.678;2023-06-04T10:43:32;1.25;;;0.68;;
49340;SDS011;35209;51.050;13.678;2023-06-04T10:48:34;0.88;;;0.73;;
49340;SDS011;35209;51.050;13.678;2023-06-04T10:53:56;0.90;;;0.50;;
49340;SDS011;35209;51.050;13.678;2023-06-04T10:58:59;1.45;;;0.75;;
49340;SDS011;35209;51.050;13.678;2023-06-04T11:04:01;1.15;;;0.60;;
49340;SDS011;35209;51.050;13.678;2023-06-04T11:09:05;1.25;;;0.60;;
49340;SDS011;35209;51.050;13.678;2023-06-04T11:14:09;0.70;;;0.50;;
49340;SDS011;35209;51.050;13.678;2023-06-04T11:19:14;4.85;;;0.98;;
49340;SDS011;35209;51.050;13.678;2023-06-04T11:24:16;2.55;;;0.70;;
49340;SDS011;35209;51.050;13.678;2023-06-04T11:29:17;1.55;;;0.75;;
49340;SDS011;35209;51.050;13.678;2023-06-04T11:34:23;5.35;;;0.85;;
49340;SDS011;35209;51.050;13.678;2023-06-04T11:39:33;0.95;;;0.90;;
49340;SDS011;35209;51.050;13.678;2023-06-04T11:44:36;1.60;;;0.90;;
49340;SDS011;35209;51.050;13.678;2023-06-04T11:49:38;1.25;;;0.70;;
49340;SDS011;35209;51.050;13.678;2023-06-04T11:54:40;0.70;;;0.70;;
49340;SDS011;35209;51.050;13.678;2023-06-04T11:59:42;2.20;;;0.65;;
49340;SDS011;35209;51.050;13.678;2023-06-04T12:04:44;2.25;;;0.93;;
49340;SDS011;35209;51.050;13.678;2023-06-04T12:09:46;1.63;;;0.70;;
49340;SDS011;35209;51.050;13.678;2023-06-04T12:14:55;3.92;;;0.70;;
49340;SDS011;35209;51.050;13.678;2023-06-04T12:19:58;1.00;;;0.90;;
49340;SDS011;35209;51.050;13.678;2023-06-04T12:25:00;0.80;;;0.77;;
49340;SDS011;35209;51.050;13.678;2023-06-04T12:30:04;1.40;;;0.80;;
49340;SDS011;35209;51.050;13.678;2023-06-04T12:35:07;1.08;;;0.70;;
49340;SDS011;35209;51.050;13.678;2023-06-04T12:40:09;1.95;;;0.88;;
49340;SDS011;35209;51.050;13.678;2023-06-04T12:45:11;0.93;;;0.75;;
49340;SDS011;35209;51.050;13.678;2023-06-04T12:50:15;1.63;;;0.85;;
49340;SDS011;35209;51.050;13.678;2023-06-04T12:55:16;0.70;;;0.70;;
49340;SDS011;35209;51.050;13.678;2023-06-04T13:00:18;0.85;;;0.80;;
49340;SDS011;35209;51.050;13.678;2023-06-04T13:05:20;1.80;;;0.80;;
49340;SDS011;35209;51.050;13.678;2023-06-04T13:10:22;1.17;;;0.88;;
49340;SDS011;35209;51.050;13.678;2023-06-04T13:15:23;0.93;;;0.75;;
49340;SDS011;35209;51.050;13.678;2023-06-04T13:20:25;2.13;;;0.70;;
49340;SDS011;35209;51.050;13.678;2023-06-04T13:25:27;0.85;;;0.80;;
49340;SDS011;35209;51.050;13.678;2023-06-04T13:30:30;1.98;;;1.00;;
49340;SDS011;35209;51.050;13.678;2023-06-04T13:35:32;2.58;;;0.70;;
49340;SDS011;35209;51.050;13.678;2023-06-04T13:40:34;1.52;;;0.90;;
49340;SDS011;35209;51.050;13.678;2023-06-04T13:45:36;4.05;;;0.80;;
49340;SDS011;35209;51.050;13.678;2023-06-04T13:50:38;0.60;;;0.60;;
49340;SDS011;35209;51.050;13.678;2023-06-04T13:55:40;1.40;;;0.80;;
49340;SDS011;35209;51.050;13.678;2023-06-04T14:00:42;1.77;;;0.80;;
49340;SDS011;35209;51.050;13.678;2023-06-04T14:05:44;1.75;;;0.80;;
49340;SDS011;35209;51.050;13.678;2023-06-04T14:10:45;2.45;;;0.80;;
49340;SDS011;35209;51.050;13.678;2023-06-04T14:15:47;1.00;;;0.80;;
49340;SDS011;35209;51.050;13.678;2023-06-04T14:20:49;2.30;;;0.90;;
49340;SDS011;35209;51.050;13.678;2023-06-04T14:25:51;1.50;;;0.80;;
49340;SDS011;35209;51.050;13.678;2023-06-04T14:30:53;1.80;;;0.88;;
49340;SDS011;35209;51.050;13.678;2023-06-04T14:35:54;1.63;;;0.70;;
49340;SDS011;35209;51.050;13.678;2023-06-04T14:40:56;0.80;;;0.80;;
49340;SDS011;35209;51.050;13.678;2023-06-04T14:45:58;1.02;;;0.73;;
49340;SDS011;35209;51.050;13.678;2023-06-04T14:51:00;1.20;;;0.65;;
49340;SDS011;35209;51.050;13.678;2023-06-04T14:56:01;1.10;;;0.90;;
49340;SDS011;35209;51.050;13.678;2023-06-04T15:01:03;1.52;;;0.90;;
49340;SDS011;35209;51.050;13.678;2023-06-04T15:06:05;1.75;;;0.82;;
49340;SDS011;35209;51.050;13.678;2023-06-04T15:11:20;1.97;;;0.90;;
49340;SDS011;35209;51.050;13.678;2023-06-04T15:16:22;2.35;;;0.68;;
49340;SDS011;35209;51.050;13.678;2023-06-04T15:21:24;1.33;;;0.77;;
49340;SDS011;35209;51.050;13.678;2023-06-04T15:26:26;1.52;;;0.80;;
49340;SDS011;35209;51.050;13.678;2023-06-04T15:31:28;2.08;;;0.80;;
49340;SDS011;35209;51.050;13.678;2023-06-04T15:36:31;1.00;;;0.90;;
49340;SDS011;35209;51.050;13.678;2023-06-04T15:41:33;1.40;;;0.90;;
49340;SDS011;35209;51.050;13.678;2023-06-04T15:46:35;1.20;;;0.70;;
49340;SDS011;35209;51.050;13.678;2023-06-04T15:51:37;1.42;;;1.00;;
49340;SDS011;35209;51.050;13.678;2023-06-04T15:56:39;1.30;;;1.02;;
49340;SDS011;35209;51.050;13.678;2023-06-04T16:01:41;3.88;;;0.80;;
49340;SDS011;35209;51.050;13.678;2023-06-04T16:06:44;1.20;;;0.95;;
49340;SDS011;35209;51.050;13.678;2023-06-04T16:11:45;1.27;;;0.80;;
49340;SDS011;35209;51.050;13.678;2023-06-04T16:16:47;1.88;;;0.90;;
49340;SDS011;35209;51.050;13.678;2023-06-04T16:21:49;3.38;;;0.95;;
49340;SDS011;35209;51.050;13.678;2023-06-04T16:26:51;1.50;;;1.10;;
49340;SDS011;35209;51.050;13.678;2023-06-04T16:31:53;2.35;;;1.00;;
49340;SDS011;35209;51.050;13.678;2023-06-04T16:36:55;1.73;;;1.15;;
49340;SDS011;35209;51.050;13.678;2023-06-04T16:41:57;1.17;;;1.00;;
49340;SDS011;35209;51.050;13.678;2023-06-04T16:47:03;2.10;;;0.90;;
49340;SDS011;35209;51.050;13.678;2023-06-04T16:52:05;1.98;;;0.98;;
49340;SDS011;35209;51.050;13.678;2023-06-04T16:57:08;1.25;;;1.10;;
49340;SDS011;35209;51.050;13.678;2023-06-04T17:02:10;1.00;;;0.90;;
49340;SDS011;35209;51.050;13.678;2023-06-04T17:07:12;2.00;;;1.00;;
49340;SDS011;35209;51.050;13.678;2023-06-04T17:12:14;3.67;;;1.10;;
49340;SDS011;35209;51.050;13.678;2023-06-04T17:17:16;1.80;;;1.00;;
49340;SDS011;35209;51.050;13.678;2023-06-04T17:22:18;1.92;;;1.10;;
49340;SDS011;35209;51.050;13.678;2023-06-04T17:27:19;1.15;;;1.05;;
49340;SDS011;35209;51.050;13.678;2023-06-04T17:32:21;2.55;;;1.00;;
49340;SDS011;35209;51.050;13.678;2023-06-04T17:37:23;2.28;;;1.10;;
49340;SDS011;35209;51.050;13.678;2023-06-04T17:42:26;2.03;;;1.00;;
49340;SDS011;35209;51.050;13.678;2023-06-04T17:47:27;2.38;;;1.00;;
49340;SDS011;35209;51.050;13.678;2023-06-04T17:52:29;2.58;;;1.10;;
49340;SDS011;35209;51.050;13.678;2023-06-04T17:57:31;2.28;;;1.08;;
49340;SDS011;35209;51.050;13.678;2023-06-04T18:02:33;1.90;;;1.00;;
49340;SDS011;35209;51.050;13.678;2023-06-04T18:07:35;1.35;;;1.00;;
49340;SDS011;35209;51.050;13.678;2023-06-04T18:12:37;1.27;;;0.90;;
49340;SDS011;35209;51.050;13.678;2023-06-04T18:17:39;1.67;;;0.93;;
49340;SDS011;35209;51.050;13.678;2023-06-04T18:22:41;1.80;;;0.70;;
49340;SDS011;35209;51.050;13.678;2023-06-04T18:27:43;1.45;;;1.08;;
49340;SDS011;35209;51.050;13.678;2023-06-04T18:32:45;2.00;;;1.20;;
49340;SDS011;35209;51.050;13.678;2023-06-04T18:37:49;1.65;;;1.10;;
49340;SDS011;35209;51.050;13.678;2023-06-04T18:42:51;1.48;;;0.95;;
49340;SDS011;35209;51.050;13.678;2023-06-04T18:47:52;1.35;;;1.10;;
49340;SDS011;35209;51.050;13.678;2023-06-04T18:52:54;1.83;;;1.05;;
49340;SDS011;35209;51.050;13.678;2023-06-04T18:57:56;1.33;;;1.10;;
49340;SDS011;35209;51.050;13.678;2023-06-04T19:02:58;5.28;;;1.38;;
49340;SDS011;35209;51.050;13.678;2023-06-04T19:08:00;3.03;;;1.23;;
49340;SDS011;35209;51.050;13.678;2023-06-04T19:13:02;2.28;;;1.42;;
49340;SDS011;35209;51.050;13.678;2023-06-04T19:18:04;2.17;;;1.40;;
49340;SDS011;35209;51.050;13.678;2023-06-04T19:23:06;3.00;;;1.90;;
49340;SDS011;35209;51.050;13.678;2023-06-04T19:28:08;4.13;;;1.85;;
49340;SDS011;35209;51.050;13.678;2023-06-04T19:33:13;2.90;;;2.00;;
49340;SDS011;35209;51.050;13.678;2023-06-04T19:38:15;1.70;;;1.50;;
49340;SDS011;35209;51.050;13.678;2023-06-04T19:43:17;3.53;;;1.52;;
49340;SDS011;35209;51.050;13.678;2023-06-04T19:48:19;2.35;;;1.70;;
49340;SDS011;35209;51.050;13.678;2023-06-04T19:53:21;2.65;;;1.80;;
49340;SDS011;35209;51.050;13.678;2023-06-04T19:58:22;4.53;;;2.08;;
49340;SDS011;35209;51.050;13.678;2023-06-04T20:03:26;3.97;;;1.60;;
49340;SDS011;35209;51.050;13.678;2023-06-04T20:08:32;3.83;;;1.50;;
49340;SDS011;35209;51.050;13.678;2023-06-04T20:13:34;2.13;;;1.45;;
49340;SDS011;35209;51.050;13.678;2023-06-04T20:18:36;3.17;;;1.90;;
49340;SDS011;35209;51.050;13.678;2023-06-04T20:23:38;2.00;;;1.75;;
49340;SDS011;35209;51.050;13.678;2023-06-04T20:28:40;2.33;;;1.42;;
49340;SDS011;35209;51.050;13.678;2023-06-04T20:33:42;4.05;;;1.80;;
49340;SDS011;35209;51.050;13.678;2023-06-04T20:38:44;3.17;;;2.25;;
49340;SDS011;35209;51.050;13.678;2023-06-04T20:43:50;3.05;;;2.00;;
49340;SDS011;35209;51.050;13.678;2023-06-04T20:48:53;3.78;;;2.13;;
49340;SDS011;35209;51.050;13.678;2023-06-04T20:53:54;2.92;;;2.08;;
49340;SDS011;35209;51.050;13.678;2023-06-04T20:58:56;3.33;;;2.00;;
49340;SDS011;35209;51.050;13.678;2023-06-04T21:03:59;1.83;;;1.45;;
49340;SDS011;35209;51.050;13.678;2023-06-04T21:09:03;3.53;;;1.75;;
49340;SDS011;35209;51.050;13.678;2023-06-04T21:14:06;5.97;;;1.83;;
49340;SDS011;35209;51.050;13.678;2023-06-04T21:19:08;3.28;;;1.63;;
49340;SDS011;35209;51.050;13.678;2023-06-04T21:24:10;7.10;;;1.80;;
49340;SDS011;35209;51.050;13.678;2023-06-04T21:29:12;2.33;;;1.73;;
49340;SDS011;35209;51.050;13.678;2023-06-04T21:34:13;4.88;;;2.03;;
49340;SDS011;35209;51.050;13.678;2023-06-04T21:39:15;3.47;;;1.98;;
49340;SDS011;35209;51.050;13.678;2023-06-04T21:44:17;4.63;;;1.65;;
49340;SDS011;35209;51.050;13.678;2023-06-04T21:49:19;3.05;;;1.70;;
49340;SDS011;35209;51.050;13.678;2023-06-04T21:54:21;2.05;;;1.80;;
49340;SDS011;35209;51.050;13.678;2023-06-04T21:59:23;1.35;;;1.25;;
49340;SDS011;35209;51.050;13.678;2023-06-04T22:04:25;2.50;;;1.55;;
49340;SDS011;35209;51.050;13.678;2023-06-04T22:09:26;3.03;;;1.60;;
49340;SDS011;35209;51.050;13.678;2023-06-04T22:14:28;4.50;;;1.65;;
49340;SDS011;35209;51.050;13.678;2023-06-04T22:19:30;2.88;;;1.60;;
49340;SDS011;35209;51.050;13.678;2023-06-04T22:24:32;4.32;;;1.55;;
49340;SDS011;35209;51.050;13.678;2023-06-04T22:29:34;4.57;;;1.65;;
49340;SDS011;35209;51.050;13.678;2023-06-04T22:34:36;3.45;;;1.67;;
49340;SDS011;35209;51.050;13.678;2023-06-04T22:39:37;2.97;;;1.45;;
49340;SDS011;35209;51.050;13.678;2023-06-04T22:44:39;2.10;;;1.48;;
49340;SDS011;35209;51.050;13.678;2023-06-04T22:49:42;2.65;;;1.55;;
49340;SDS011;35209;51.050;13.678;2023-06-04T22:54:44;3.15;;;1.55;;
49340;SDS011;35209;51.050;13.678;2023-06-04T22:59:46;2.95;;;1.50;;
49340;SDS011;35209;51.050;13.678;2023-06-04T23:04:47;2.95;;;1.52;;
49340;SDS011;35209;51.050;13.678;2023-06-04T23:09:49;2.70;;;1.52;;
49340;SDS011;35209;51.050;13.678;2023-06-04T23:14:53;1.88;;;1.25;;
49340;SDS011;35209;51.050;13.678;2023-06-04T23:19:54;2.78;;;1.38;;
49340;SDS011;35209;51.050;13.678;2023-06-04T23:24:56;1.38;;;1.20;;
49340;SDS011;35209;51.050;13.678;2023-06-04T23:29:58;2.33;;;1.42;;
49340;SDS011;35209;51.050;13.678;2023-06-04T23:35:00;1.90;;;1.30;;
49340;SDS011;35209;51.050;13.678;2023-06-04T23:40:05;3.08;;;1.50;;
49340;SDS011;35209;51.050;13.678;2023-06-04T23:45:07;3.25;;;1.60;;
49340;SDS011;35209;51.050;13.678;2023-06-04T23:50:10;2.50;;;1.33;;
49340;SDS011;35209;51.050;13.678;2023-06-04T23:55:11;1.52;;;1.25;;
